WAT2918 GMMN-LPPT
Flight info
| Callsign | WAT2918 |
|---|---|
| Flight time | 1h 4m |
| Altitude | 38000 |
| Route | LAKAM UR722 AMSEL DCT VATZI |
| Aircraft | A320/M-SDE3FGHIRWY/LB1 |
Departure
| Time | 2026-05-04 11:56 |
|---|---|
| Airport | Mohammed V International Airport (GMMN) |
Arrival
| Time | 2026-05-04 13:00 |
|---|---|
| Airport | Lisbon Humberto Delgado Airport (LPPT) |
| Time | Latitude | Longitude | Altitude | Speed | Heading |
|---|---|---|---|---|---|
| 2026-05-04 11:44 | 33.36061 | -7.57933 | 653 ft | 0 kts | 208° |
| 2026-05-04 11:50 | 33.36060 | -7.57934 | 653 ft | 0 kts | 208° |
| 2026-05-04 11:51 | 33.36056 | -7.57936 | 653 ft | 0 kts | 208° |
| 2026-05-04 11:51 | 33.36047 | -7.57942 | 653 ft | 2 kts | 208° |
| 2026-05-04 11:51 | 33.36029 | -7.57954 | 653 ft | 3 kts | 208° |
| 2026-05-04 11:51 | 33.36000 | -7.57966 | 653 ft | 5 kts | 198° |
| 2026-05-04 11:52 | 33.35961 | -7.57971 | 653 ft | 6 kts | 178° |
| 2026-05-04 11:52 | 33.35914 | -7.57959 | 653 ft | 7 kts | 163° |
| 2026-05-04 11:52 | 33.35860 | -7.57941 | 653 ft | 8 kts | 164° |
| 2026-05-04 11:52 | 33.35798 | -7.57920 | 654 ft | 9 kts | 164° |
| 2026-05-04 11:53 | 33.35736 | -7.57899 | 655 ft | 9 kts | 164° |
| 2026-05-04 11:53 | 33.35672 | -7.57878 | 656 ft | 9 kts | 168° |
| 2026-05-04 11:53 | 33.35616 | -7.57912 | 655 ft | 10 kts | 251° |
| 2026-05-04 11:53 | 33.35585 | -7.57999 | 655 ft | 10 kts | 225° |
| 2026-05-04 11:55 | 33.35220 | -7.58241 | 657 ft | 13 kts | 298° |
| 2026-05-04 11:55 | 33.35252 | -7.58275 | 657 ft | 0 kts | 338° |
| 2026-05-04 11:56 | 33.35499 | -7.58362 | 657 ft | 79 kts | 343° |
| 2026-05-04 11:56 | 33.36284 | -7.58626 | 651 ft | 151 kts | 343° |
| 2026-05-04 11:56 | 33.37369 | -7.59010 | 1119 ft | 169 kts | 346° |
| 2026-05-04 11:56 | 33.38488 | -7.59406 | 1871 ft | 169 kts | 344° |
| 2026-05-04 11:57 | 33.39622 | -7.59762 | 2603 ft | 169 kts | 347° |
| 2026-05-04 11:57 | 33.40813 | -7.60079 | 3121 ft | 184 kts | 348° |
| 2026-05-04 11:57 | 33.42123 | -7.60423 | 3608 ft | 201 kts | 347° |
| 2026-05-04 11:57 | 33.43476 | -7.61165 | 3990 ft | 227 kts | 318° |
| 2026-05-04 11:58 | 33.44454 | -7.62712 | 4646 ft | 241 kts | 301° |
| 2026-05-04 11:58 | 33.45284 | -7.64461 | 5478 ft | 246 kts | 300° |
| 2026-05-04 11:58 | 33.46130 | -7.66235 | 6372 ft | 248 kts | 300° |
| 2026-05-04 11:58 | 33.47008 | -7.68004 | 7266 ft | 250 kts | 301° |
| 2026-05-04 11:59 | 33.47921 | -7.69780 | 8167 ft | 252 kts | 300° |
| 2026-05-04 11:59 | 33.48850 | -7.71555 | 9020 ft | 254 kts | 300° |
| 2026-05-04 11:59 | 33.49781 | -7.73316 | 9836 ft | 257 kts | 300° |
| 2026-05-04 11:59 | 33.50745 | -7.75136 | 10641 ft | 260 kts | 300° |
| 2026-05-04 12:00 | 33.51716 | -7.76964 | 11455 ft | 262 kts | 299° |
| 2026-05-04 12:00 | 33.52691 | -7.78798 | 12258 ft | 265 kts | 299° |
| 2026-05-04 12:00 | 33.53682 | -7.80657 | 13022 ft | 268 kts | 300° |
| 2026-05-04 12:00 | 33.54934 | -7.82353 | 13583 ft | 285 kts | 323° |
| 2026-05-04 12:01 | 33.56893 | -7.83156 | 14020 ft | 311 kts | 354° |
| 2026-05-04 12:01 | 33.59141 | -7.82928 | 14477 ft | 330 kts | 5° |
| 2026-05-04 12:02 | 33.74157 | -7.80257 | 17880 ft | 378 kts | 2° |
| 2026-05-04 12:03 | 33.76776 | -7.79872 | 18526 ft | 382 kts | 2° |
| 2026-05-04 12:03 | 33.79487 | -7.79481 | 19142 ft | 386 kts | 1° |
| 2026-05-04 12:03 | 33.82146 | -7.79098 | 19774 ft | 390 kts | 1° |
| 2026-05-04 12:03 | 33.84865 | -7.78705 | 20360 ft | 393 kts | 1° |
| 2026-05-04 12:04 | 33.87534 | -7.78323 | 20943 ft | 397 kts | 1° |
| 2026-05-04 12:04 | 33.90304 | -7.77924 | 21513 ft | 401 kts | 1° |
| 2026-05-04 12:04 | 33.93090 | -7.77523 | 22083 ft | 404 kts | 1° |
| 2026-05-04 12:04 | 33.95912 | -7.77116 | 22643 ft | 407 kts | 1° |
| 2026-05-04 12:05 | 33.98742 | -7.76708 | 23188 ft | 411 kts | 0° |
| 2026-05-04 12:05 | 34.01434 | -7.76320 | 23695 ft | 414 kts | 0° |
| 2026-05-04 12:05 | 34.04342 | -7.75901 | 24200 ft | 417 kts | 0° |
| 2026-05-04 12:05 | 34.07260 | -7.75479 | 24727 ft | 420 kts | 360° |
| 2026-05-04 12:06 | 34.10201 | -7.75054 | 25237 ft | 423 kts | 360° |
| 2026-05-04 12:06 | 34.13132 | -7.74631 | 25704 ft | 426 kts | 359° |
| 2026-05-04 12:06 | 34.16106 | -7.74233 | 26147 ft | 428 kts | 357° |
| 2026-05-04 12:06 | 34.19084 | -7.74025 | 26623 ft | 426 kts | 354° |
| 2026-05-04 12:07 | 34.22047 | -7.74037 | 27080 ft | 425 kts | 349° |
| 2026-05-04 12:07 | 34.24979 | -7.74209 | 27487 ft | 427 kts | 348° |
| 2026-05-04 12:07 | 34.27982 | -7.74422 | 27911 ft | 429 kts | 348° |
| 2026-05-04 12:07 | 34.31010 | -7.74642 | 28330 ft | 431 kts | 348° |
| 2026-05-04 12:08 | 34.33996 | -7.74856 | 28721 ft | 434 kts | 348° |
| 2026-05-04 12:08 | 34.37077 | -7.75075 | 29134 ft | 436 kts | 348° |
| 2026-05-04 12:08 | 34.40126 | -7.75290 | 29527 ft | 438 kts | 348° |
| 2026-05-04 12:08 | 34.43179 | -7.75505 | 29903 ft | 440 kts | 348° |
| 2026-05-04 12:09 | 34.46291 | -7.75721 | 30381 ft | 440 kts | 347° |
| 2026-05-04 12:09 | 34.49367 | -7.75937 | 30861 ft | 439 kts | 347° |
| 2026-05-04 12:09 | 34.52425 | -7.76151 | 31359 ft | 438 kts | 348° |
| 2026-05-04 12:09 | 34.55481 | -7.76364 | 31832 ft | 437 kts | 347° |
| 2026-05-04 12:10 | 34.58455 | -7.76571 | 32320 ft | 435 kts | 347° |
| 2026-05-04 12:10 | 34.61472 | -7.76784 | 32723 ft | 435 kts | 347° |
| 2026-05-04 12:10 | 34.64494 | -7.76998 | 33105 ft | 435 kts | 347° |
| 2026-05-04 12:10 | 34.67522 | -7.77212 | 33525 ft | 434 kts | 347° |
| 2026-05-04 12:11 | 34.70533 | -7.77422 | 33948 ft | 432 kts | 347° |
| 2026-05-04 12:11 | 34.73553 | -7.77633 | 34295 ft | 431 kts | 347° |
| 2026-05-04 12:11 | 34.76549 | -7.77858 | 34608 ft | 430 kts | 347° |
| 2026-05-04 12:11 | 34.79552 | -7.78105 | 34891 ft | 430 kts | 346° |
| 2026-05-04 12:12 | 34.82561 | -7.78359 | 35192 ft | 429 kts | 346° |
| 2026-05-04 12:12 | 34.85550 | -7.78610 | 35477 ft | 428 kts | 346° |
| 2026-05-04 12:12 | 34.88502 | -7.78859 | 35751 ft | 428 kts | 346° |
| 2026-05-04 12:12 | 34.91493 | -7.79110 | 36033 ft | 427 kts | 346° |
| 2026-05-04 12:13 | 34.94447 | -7.79357 | 36321 ft | 427 kts | 346° |
| 2026-05-04 12:14 | 35.15227 | -7.81109 | 37822 ft | 433 kts | 345° |
| 2026-05-04 12:15 | 35.18257 | -7.81359 | 38017 ft | 432 kts | 345° |
| 2026-05-04 12:15 | 35.21264 | -7.81610 | 38065 ft | 434 kts | 345° |
| 2026-05-04 12:15 | 35.27277 | -7.82118 | 38074 ft | 433 kts | 345° |
| 2026-05-04 12:16 | 35.33301 | -7.82630 | 38074 ft | 434 kts | 345° |
| 2026-05-04 12:16 | 35.39314 | -7.83139 | 38072 ft | 435 kts | 345° |
| 2026-05-04 12:17 | 35.45384 | -7.83669 | 38080 ft | 437 kts | 345° |
| 2026-05-04 12:17 | 35.51546 | -7.84228 | 38079 ft | 445 kts | 346° |
| 2026-05-04 12:18 | 35.57779 | -7.84794 | 38135 ft | 454 kts | 346° |
| 2026-05-04 12:18 | 35.64120 | -7.85368 | 38089 ft | 460 kts | 346° |
| 2026-05-04 12:19 | 35.70560 | -7.85948 | 38080 ft | 465 kts | 346° |
| 2026-05-04 12:19 | 35.77057 | -7.86537 | 38082 ft | 469 kts | 346° |
| 2026-05-04 12:20 | 35.83587 | -7.87132 | 38080 ft | 472 kts | 346° |
| 2026-05-04 12:20 | 35.90094 | -7.87884 | 38077 ft | 468 kts | 342° |
| 2026-05-04 12:21 | 35.96431 | -7.89455 | 38080 ft | 459 kts | 335° |
| 2026-05-04 12:21 | 36.02407 | -7.91853 | 38079 ft | 450 kts | 329° |
| 2026-05-04 12:22 | 36.08075 | -7.94967 | 38066 ft | 445 kts | 326° |
| 2026-05-04 12:22 | 36.13694 | -7.98282 | 38070 ft | 447 kts | 326° |
| 2026-05-04 12:23 | 36.19318 | -8.01592 | 38072 ft | 448 kts | 326° |
| 2026-05-04 12:23 | 36.22131 | -8.03251 | 37913 ft | 448 kts | 326° |
| 2026-05-04 12:23 | 36.24938 | -8.04908 | 38013 ft | 447 kts | 326° |
| 2026-05-04 12:24 | 36.30584 | -8.08249 | 38061 ft | 449 kts | 326° |
| 2026-05-04 12:24 | 36.36193 | -8.11575 | 38072 ft | 449 kts | 326° |
| 2026-05-04 12:25 | 36.41856 | -8.14936 | 38070 ft | 449 kts | 326° |
| 2026-05-04 12:25 | 36.47467 | -8.18273 | 38070 ft | 448 kts | 326° |
| 2026-05-04 12:26 | 36.53092 | -8.21624 | 38070 ft | 448 kts | 326° |
| 2026-05-04 12:26 | 36.58692 | -8.24968 | 38066 ft | 448 kts | 326° |
| 2026-05-04 12:27 | 36.64314 | -8.28327 | 38066 ft | 449 kts | 326° |
| 2026-05-04 12:27 | 36.69966 | -8.31711 | 38059 ft | 449 kts | 326° |
| 2026-05-04 12:28 | 36.75551 | -8.35061 | 38063 ft | 449 kts | 326° |
| 2026-05-04 12:28 | 36.78363 | -8.36747 | 37690 ft | 444 kts | 326° |
| 2026-05-04 12:28 | 36.81126 | -8.38402 | 37183 ft | 437 kts | 326° |
| 2026-05-04 12:29 | 36.83843 | -8.40034 | 36586 ft | 432 kts | 326° |
| 2026-05-04 12:29 | 36.86538 | -8.41657 | 36017 ft | 427 kts | 326° |
| 2026-05-04 12:29 | 36.89187 | -8.43252 | 35476 ft | 425 kts | 326° |
| 2026-05-04 12:29 | 36.91842 | -8.44856 | 34917 ft | 423 kts | 326° |
| 2026-05-04 12:30 | 36.94490 | -8.46457 | 34325 ft | 422 kts | 326° |
| 2026-05-04 12:30 | 36.97121 | -8.48050 | 33689 ft | 422 kts | 327° |
| 2026-05-04 12:30 | 36.99768 | -8.49652 | 33035 ft | 422 kts | 327° |
| 2026-05-04 12:30 | 37.02420 | -8.51259 | 32382 ft | 422 kts | 327° |
| 2026-05-04 12:31 | 37.05051 | -8.52853 | 31705 ft | 422 kts | 327° |
| 2026-05-04 12:31 | 37.07695 | -8.54456 | 31054 ft | 422 kts | 328° |
| 2026-05-04 12:31 | 37.10337 | -8.56057 | 30362 ft | 422 kts | 328° |
| 2026-05-04 12:31 | 37.12975 | -8.57648 | 29616 ft | 423 kts | 328° |
| 2026-05-04 12:32 | 37.15609 | -8.59236 | 29028 ft | 419 kts | 328° |
| 2026-05-04 12:32 | 37.20792 | -8.62366 | 28112 ft | 406 kts | 328° |
| 2026-05-04 12:32 | 37.23320 | -8.63901 | 27675 ft | 400 kts | 328° |
| 2026-05-04 12:33 | 37.25805 | -8.65414 | 27236 ft | 395 kts | 328° |
| 2026-05-04 12:33 | 37.28227 | -8.66902 | 26810 ft | 390 kts | 327° |
| 2026-05-04 12:33 | 37.30647 | -8.68391 | 26371 ft | 385 kts | 328° |
| 2026-05-04 12:33 | 37.33051 | -8.69867 | 25929 ft | 381 kts | 328° |
| 2026-05-04 12:34 | 37.35419 | -8.71320 | 25491 ft | 378 kts | 328° |
| 2026-05-04 12:34 | 37.37769 | -8.72761 | 25062 ft | 374 kts | 328° |
| 2026-05-04 12:34 | 37.40081 | -8.74178 | 24636 ft | 371 kts | 328° |
| 2026-05-04 12:34 | 37.42381 | -8.75588 | 24203 ft | 368 kts | 328° |
| 2026-05-04 12:35 | 37.44679 | -8.76997 | 23777 ft | 365 kts | 328° |
| 2026-05-04 12:35 | 37.46960 | -8.78398 | 23349 ft | 362 kts | 328° |
| 2026-05-04 12:35 | 37.49220 | -8.79787 | 22928 ft | 360 kts | 328° |
| 2026-05-04 12:35 | 37.51461 | -8.81165 | 22510 ft | 357 kts | 329° |
| 2026-05-04 12:36 | 37.53661 | -8.82516 | 22087 ft | 354 kts | 329° |
| 2026-05-04 12:36 | 37.55878 | -8.83880 | 21667 ft | 352 kts | 329° |
| 2026-05-04 12:36 | 37.58078 | -8.85216 | 21233 ft | 350 kts | 330° |
| 2026-05-04 12:36 | 37.60301 | -8.86398 | 20799 ft | 349 kts | 334° |
| 2026-05-04 12:37 | 37.62616 | -8.87425 | 20367 ft | 348 kts | 337° |
| 2026-05-04 12:37 | 37.64903 | -8.88362 | 19950 ft | 346 kts | 337° |
| 2026-05-04 12:37 | 37.67175 | -8.89283 | 19511 ft | 344 kts | 338° |
| 2026-05-04 12:37 | 37.69461 | -8.90209 | 19068 ft | 342 kts | 338° |
| 2026-05-04 12:38 | 37.71708 | -8.91121 | 18669 ft | 340 kts | 338° |
| 2026-05-04 12:38 | 37.73948 | -8.92032 | 18245 ft | 338 kts | 338° |
| 2026-05-04 12:38 | 37.76171 | -8.92936 | 17820 ft | 335 kts | 338° |
| 2026-05-04 12:38 | 37.78408 | -8.93847 | 17398 ft | 333 kts | 338° |
| 2026-05-04 12:39 | 37.80587 | -8.94735 | 16971 ft | 331 kts | 338° |
| 2026-05-04 12:39 | 37.82766 | -8.95626 | 16589 ft | 329 kts | 338° |
| 2026-05-04 12:39 | 37.84932 | -8.96511 | 16178 ft | 327 kts | 338° |
| 2026-05-04 12:39 | 37.87091 | -8.97395 | 15771 ft | 325 kts | 338° |
| 2026-05-04 12:40 | 37.89193 | -8.98431 | 15304 ft | 321 kts | 328° |
| 2026-05-04 12:40 | 37.91080 | -8.99937 | 14830 ft | 319 kts | 323° |
| 2026-05-04 12:40 | 37.92884 | -9.01517 | 14384 ft | 318 kts | 322° |
| 2026-05-04 12:40 | 37.94712 | -9.03111 | 13950 ft | 317 kts | 323° |
| 2026-05-04 12:41 | 37.96541 | -9.04678 | 13528 ft | 316 kts | 323° |
| 2026-05-04 12:41 | 37.98348 | -9.06208 | 13126 ft | 314 kts | 324° |
| 2026-05-04 12:41 | 38.00173 | -9.07740 | 12727 ft | 312 kts | 324° |
| 2026-05-04 12:41 | 38.01963 | -9.09235 | 12339 ft | 310 kts | 324° |
| 2026-05-04 12:42 | 38.03756 | -9.10729 | 11946 ft | 308 kts | 324° |
| 2026-05-04 12:42 | 38.05541 | -9.12214 | 11550 ft | 306 kts | 325° |
| 2026-05-04 12:42 | 38.07319 | -9.13692 | 11135 ft | 304 kts | 325° |
| 2026-05-04 12:42 | 38.09075 | -9.15151 | 10759 ft | 302 kts | 325° |
| 2026-05-04 12:43 | 38.10841 | -9.16617 | 10373 ft | 300 kts | 326° |
| 2026-05-04 12:43 | 38.12566 | -9.18037 | 10220 ft | 289 kts | 326° |
| 2026-05-04 12:43 | 38.14200 | -9.19385 | 10150 ft | 275 kts | 325° |
| 2026-05-04 12:43 | 38.15776 | -9.20688 | 10054 ft | 266 kts | 325° |
| 2026-05-04 12:44 | 38.17337 | -9.21987 | 9715 ft | 265 kts | 325° |
| 2026-05-04 12:44 | 38.18870 | -9.23264 | 9414 ft | 264 kts | 326° |
| 2026-05-04 12:44 | 38.20404 | -9.24543 | 9110 ft | 262 kts | 326° |
| 2026-05-04 12:44 | 38.21914 | -9.25804 | 8806 ft | 260 kts | 326° |
| 2026-05-04 12:45 | 38.23444 | -9.27082 | 8504 ft | 259 kts | 326° |
| 2026-05-04 12:45 | 38.24947 | -9.28338 | 8209 ft | 257 kts | 326° |
| 2026-05-04 12:45 | 38.26437 | -9.29584 | 7907 ft | 255 kts | 326° |
| 2026-05-04 12:45 | 38.27919 | -9.30824 | 7607 ft | 253 kts | 326° |
| 2026-05-04 12:46 | 38.29380 | -9.32046 | 7322 ft | 252 kts | 326° |
| 2026-05-04 12:46 | 38.30822 | -9.33251 | 7155 ft | 243 kts | 326° |
| 2026-05-04 12:46 | 38.32212 | -9.34413 | 7119 ft | 229 kts | 326° |
| 2026-05-04 12:46 | 38.33519 | -9.35506 | 7082 ft | 223 kts | 326° |
| 2026-05-04 12:47 | 38.34750 | -9.36762 | 7077 ft | 229 kts | 314° |
| 2026-05-04 12:47 | 38.35734 | -9.38340 | 7091 ft | 231 kts | 305° |
| 2026-05-04 12:47 | 38.36639 | -9.40059 | 7097 ft | 231 kts | 304° |
| 2026-05-04 12:47 | 38.37518 | -9.41761 | 7092 ft | 231 kts | 304° |
| 2026-05-04 12:48 | 38.38411 | -9.43480 | 7092 ft | 231 kts | 304° |
| 2026-05-04 12:48 | 38.39296 | -9.45169 | 7092 ft | 230 kts | 304° |
| 2026-05-04 12:48 | 38.40212 | -9.46846 | 7084 ft | 230 kts | 311° |
| 2026-05-04 12:48 | 38.41373 | -9.48253 | 7083 ft | 230 kts | 324° |
| 2026-05-04 12:49 | 38.42692 | -9.49412 | 7095 ft | 230 kts | 326° |
| 2026-05-04 12:49 | 38.44033 | -9.50538 | 7095 ft | 231 kts | 326° |
| 2026-05-04 12:49 | 38.45383 | -9.51668 | 7082 ft | 231 kts | 328° |
| 2026-05-04 12:49 | 38.46875 | -9.52346 | 7054 ft | 231 kts | 358° |
| 2026-05-04 12:50 | 38.48448 | -9.51845 | 7076 ft | 236 kts | 30° |
| 2026-05-04 12:50 | 38.49588 | -9.50351 | 7061 ft | 242 kts | 61° |
| 2026-05-04 12:50 | 38.50025 | -9.48263 | 7059 ft | 247 kts | 80° |
| 2026-05-04 12:50 | 38.50252 | -9.46105 | 7091 ft | 248 kts | 80° |
| 2026-05-04 12:51 | 38.50492 | -9.43918 | 7090 ft | 248 kts | 79° |
| 2026-05-04 12:51 | 38.50742 | -9.41711 | 6958 ft | 250 kts | 79° |
| 2026-05-04 12:51 | 38.50993 | -9.39538 | 6655 ft | 248 kts | 79° |
| 2026-05-04 12:51 | 38.51247 | -9.37359 | 6406 ft | 245 kts | 79° |
| 2026-05-04 12:52 | 38.51496 | -9.35229 | 6141 ft | 243 kts | 79° |
| 2026-05-04 12:52 | 38.51747 | -9.33089 | 5873 ft | 240 kts | 79° |
| 2026-05-04 12:52 | 38.51994 | -9.30978 | 5622 ft | 238 kts | 79° |
| 2026-05-04 12:52 | 38.52238 | -9.28890 | 5397 ft | 233 kts | 79° |
| 2026-05-04 12:53 | 38.52472 | -9.26880 | 5254 ft | 221 kts | 79° |
| 2026-05-04 12:53 | 38.52690 | -9.24991 | 5147 ft | 206 kts | 78° |
| 2026-05-04 12:53 | 38.52985 | -9.23268 | 4965 ft | 192 kts | 62° |
| 2026-05-04 12:53 | 38.53828 | -9.22076 | 4754 ft | 172 kts | 29° |
| 2026-05-04 12:54 | 38.54911 | -9.21642 | 4522 ft | 156 kts | 1° |
| 2026-05-04 12:54 | 38.55927 | -9.21855 | 4327 ft | 143 kts | 340° |
| 2026-05-04 12:54 | 38.56853 | -9.22337 | 4188 ft | 143 kts | 336° |
| 2026-05-04 12:54 | 38.57761 | -9.22838 | 4125 ft | 142 kts | 336° |
| 2026-05-04 12:55 | 38.58680 | -9.23332 | 4054 ft | 143 kts | 341° |
| 2026-05-04 12:55 | 38.59664 | -9.23410 | 3946 ft | 143 kts | 10° |
| 2026-05-04 12:55 | 38.60611 | -9.22979 | 3732 ft | 142 kts | 19° |
| 2026-05-04 12:55 | 38.61519 | -9.22487 | 3509 ft | 141 kts | 20° |
| 2026-05-04 12:56 | 38.62419 | -9.21994 | 3286 ft | 140 kts | 20° |
| 2026-05-04 12:56 | 38.63314 | -9.21508 | 3096 ft | 140 kts | 19° |
| 2026-05-04 12:56 | 38.64216 | -9.21023 | 2912 ft | 140 kts | 19° |
| 2026-05-04 12:56 | 38.65120 | -9.20539 | 2725 ft | 139 kts | 19° |
| 2026-05-04 12:57 | 38.66022 | -9.20058 | 2540 ft | 139 kts | 19° |
| 2026-05-04 12:57 | 38.66911 | -9.19584 | 2363 ft | 138 kts | 18° |
| 2026-05-04 12:57 | 38.67801 | -9.19109 | 2182 ft | 138 kts | 18° |
| 2026-05-04 12:57 | 38.68685 | -9.18639 | 2009 ft | 138 kts | 19° |
| 2026-05-04 12:58 | 38.69573 | -9.18165 | 1813 ft | 137 kts | 18° |
| 2026-05-04 12:58 | 38.70459 | -9.17691 | 1638 ft | 137 kts | 18° |
| 2026-05-04 12:58 | 38.71325 | -9.17227 | 1457 ft | 134 kts | 18° |
| 2026-05-04 12:58 | 38.72197 | -9.16763 | 1282 ft | 136 kts | 18° |
| 2026-05-04 12:59 | 38.73081 | -9.16290 | 1112 ft | 138 kts | 18° |
| 2026-05-04 12:59 | 38.73965 | -9.15818 | 926 ft | 137 kts | 19° |
| 2026-05-04 12:59 | 38.74849 | -9.15344 | 731 ft | 136 kts | 18° |
| 2026-05-04 12:59 | 38.75729 | -9.14877 | 578 ft | 136 kts | 20° |
| 2026-05-04 13:00 | 38.76599 | -9.14401 | 365 ft | 135 kts | 19° |
| 2026-05-04 13:00 | 38.77391 | -9.13989 | 353 ft | 89 kts | 20° |
| 2026-05-04 13:00 | 38.77790 | -9.13779 | 360 ft | 52 kts | 19° |
| 2026-05-04 13:00 | 38.78057 | -9.13634 | 361 ft | 35 kts | 21° |
| 2026-05-04 13:01 | 38.78228 | -9.13518 | 358 ft | 15 kts | 57° |
| 2026-05-04 13:01 | 38.78197 | -9.13461 | 353 ft | 0 kts | 164° |
| 2026-05-04 13:01 | 38.78175 | -9.13453 | 352 ft | 6 kts | 164° |
| 2026-05-04 13:01 | 38.78110 | -9.13430 | 348 ft | 12 kts | 165° |
| 2026-05-04 13:02 | 38.78009 | -9.13395 | 342 ft | 17 kts | 165° |
| 2026-05-04 13:02 | 38.77891 | -9.13363 | 338 ft | 6 kts | 202° |
| 2026-05-04 13:02 | 38.77884 | -9.13375 | 338 ft | 3 kts | 252° |
| 2026-05-04 13:02 | 38.77909 | -9.13422 | 342 ft | 9 kts | 292° |
| 2026-05-04 13:03 | 38.77897 | -9.13478 | 345 ft | 5 kts | 223° |
| 2026-05-04 13:03 | 38.77867 | -9.13503 | 346 ft | 4 kts | 212° |
| 2026-05-04 13:03 | 38.77839 | -9.13523 | 346 ft | 5 kts | 207° |
| 2026-05-04 13:03 | 38.77801 | -9.13547 | 346 ft | 7 kts | 204° |
| 2026-05-04 13:04 | 38.77743 | -9.13577 | 346 ft | 11 kts | 203° |
| 2026-05-04 13:04 | 38.77661 | -9.13598 | 344 ft | 13 kts | 174° |
| 2026-05-04 13:04 | 38.77558 | -9.13574 | 340 ft | 16 kts | 167° |
| 2026-05-04 13:04 | 38.77433 | -9.13539 | 335 ft | 18 kts | 168° |
| 2026-05-04 13:05 | 38.77297 | -9.13504 | 332 ft | 20 kts | 168° |
| 2026-05-04 13:05 | 38.77153 | -9.13466 | 332 ft | 21 kts | 170° |
| 2026-05-04 13:05 | 38.77014 | -9.13429 | 333 ft | 19 kts | 169° |
| 2026-05-04 13:05 | 38.76883 | -9.13391 | 335 ft | 18 kts | 167° |
| 2026-05-04 13:06 | 38.76768 | -9.13370 | 335 ft | 13 kts | 193° |
| 2026-05-04 13:06 | 38.76688 | -9.13433 | 337 ft | 12 kts | 223° |
| 2026-05-04 13:06 | 38.76653 | -9.13527 | 338 ft | 11 kts | 258° |
| 2026-05-04 13:06 | 38.76631 | -9.13632 | 338 ft | 12 kts | 256° |
| 2026-05-04 13:07 | 38.76582 | -9.13663 | 340 ft | 8 kts | 180° |
| 2026-05-04 13:07 | 38.76545 | -9.13712 | 341 ft | 8 kts | 257° |
| 2026-05-04 13:07 | 38.76527 | -9.13752 | 341 ft | 2 kts | 177° |
| 2026-05-04 13:07 | 38.76503 | -9.13747 | 342 ft | 3 kts | 171° |
| 2026-05-04 13:08 | 38.76473 | -9.13739 | 342 ft | 3 kts | 168° |
| 2026-05-04 13:08 | 38.76452 | -9.13733 | 341 ft | 0 kts | 168° |